sensor_id;sensor_type;location;lat;lon;timestamp;P1;durP1;ratioP1;P2;durP2;ratioP2
4450;SDS011;2238;50.180;9.230;2022-08-06T00:01:08;3.50;;;3.30;;
4450;SDS011;2238;50.180;9.230;2022-08-06T00:04:08;3.93;;;3.53;;
4450;SDS011;2238;50.180;9.230;2022-08-06T00:07:09;3.40;;;3.13;;
4450;SDS011;2238;50.180;9.230;2022-08-06T00:10:09;4.13;;;3.80;;
4450;SDS011;2238;50.180;9.230;2022-08-06T00:13:10;3.27;;;3.07;;
4450;SDS011;2238;50.180;9.230;2022-08-06T00:16:11;4.43;;;3.93;;
4450;SDS011;2238;50.180;9.230;2022-08-06T00:19:12;3.43;;;3.23;;
4450;SDS011;2238;50.180;9.230;2022-08-06T00:22:12;5.13;;;3.53;;
4450;SDS011;2238;50.180;9.230;2022-08-06T00:25:13;3.80;;;3.40;;
4450;SDS011;2238;50.180;9.230;2022-08-06T00:28:14;4.63;;;3.23;;
4450;SDS011;2238;50.180;9.230;2022-08-06T00:31:15;3.40;;;3.10;;
4450;SDS011;2238;50.180;9.230;2022-08-06T00:34:15;3.37;;;3.17;;
4450;SDS011;2238;50.180;9.230;2022-08-06T00:37:16;3.50;;;3.10;;
4450;SDS011;2238;50.180;9.230;2022-08-06T00:40:17;5.37;;;3.70;;
4450;SDS011;2238;50.180;9.230;2022-08-06T00:43:20;3.80;;;2.80;;
4450;SDS011;2238;50.180;9.230;2022-08-06T00:46:20;3.30;;;3.07;;
4450;SDS011;2238;50.180;9.230;2022-08-06T00:49:22;3.40;;;3.10;;
4450;SDS011;2238;50.180;9.230;2022-08-06T00:52:22;3.73;;;3.43;;
4450;SDS011;2238;50.180;9.230;2022-08-06T00:55:23;3.57;;;3.27;;
4450;SDS011;2238;50.180;9.230;2022-08-06T00:58:24;3.70;;;3.43;;
4450;SDS011;2238;50.180;9.230;2022-08-06T01:01:24;3.40;;;3.20;;
4450;SDS011;2238;50.180;9.230;2022-08-06T01:04:25;3.23;;;3.03;;
4450;SDS011;2238;50.180;9.230;2022-08-06T01:07:25;3.50;;;3.10;;
4450;SDS011;2238;50.180;9.230;2022-08-06T01:10:26;3.10;;;2.90;;
4450;SDS011;2238;50.180;9.230;2022-08-06T01:13:27;3.77;;;3.47;;
4450;SDS011;2238;50.180;9.230;2022-08-06T01:19:48;3.90;;;3.30;;
4450;SDS011;2238;50.180;9.230;2022-08-06T01:29:36;3.40;;;3.10;;
4450;SDS011;2238;50.180;9.230;2022-08-06T01:32:40;3.27;;;2.97;;
4450;SDS011;2238;50.180;9.230;2022-08-06T01:35:59;3.80;;;3.40;;
4450;SDS011;2238;50.180;9.230;2022-08-06T01:39:04;4.23;;;3.87;;
4450;SDS011;2238;50.180;9.230;2022-08-06T01:42:05;4.03;;;3.57;;
4450;SDS011;2238;50.180;9.230;2022-08-06T01:45:08;3.27;;;2.93;;
4450;SDS011;2238;50.180;9.230;2022-08-06T01:48:13;3.90;;;3.60;;
4450;SDS011;2238;50.180;9.230;2022-08-06T01:51:17;4.47;;;3.40;;
4450;SDS011;2238;50.180;9.230;2022-08-06T01:54:18;3.70;;;3.40;;
4450;SDS011;2238;50.180;9.230;2022-08-06T01:57:20;4.03;;;3.20;;
4450;SDS011;2238;50.180;9.230;2022-08-06T02:00:23;3.20;;;2.90;;
4450;SDS011;2238;50.180;9.230;2022-08-06T02:03:26;3.00;;;2.80;;
4450;SDS011;2238;50.180;9.230;2022-08-06T02:06:37;3.07;;;2.87;;
4450;SDS011;2238;50.180;9.230;2022-08-06T02:09:42;5.10;;;3.07;;
4450;SDS011;2238;50.180;9.230;2022-08-06T02:12:44;3.30;;;3.10;;
4450;SDS011;2238;50.180;9.230;2022-08-06T02:15:48;3.40;;;3.10;;
4450;SDS011;2238;50.180;9.230;2022-08-06T02:18:50;4.37;;;3.43;;
4450;SDS011;2238;50.180;9.230;2022-08-06T02:21:52;3.20;;;3.00;;
4450;SDS011;2238;50.180;9.230;2022-08-06T02:24:55;4.10;;;3.70;;
4450;SDS011;2238;50.180;9.230;2022-08-06T02:28:00;3.80;;;3.40;;
4450;SDS011;2238;50.180;9.230;2022-08-06T02:31:02;3.93;;;3.63;;
4450;SDS011;2238;50.180;9.230;2022-08-06T02:34:03;5.13;;;3.70;;
4450;SDS011;2238;50.180;9.230;2022-08-06T02:37:12;4.13;;;3.83;;
4450;SDS011;2238;50.180;9.230;2022-08-06T02:40:24;4.50;;;3.23;;
4450;SDS011;2238;50.180;9.230;2022-08-06T02:43:34;5.33;;;3.20;;
4450;SDS011;2238;50.180;9.230;2022-08-06T02:46:38;4.40;;;3.23;;
4450;SDS011;2238;50.180;9.230;2022-08-06T02:49:45;4.67;;;3.47;;
4450;SDS011;2238;50.180;9.230;2022-08-06T02:52:55;3.20;;;2.90;;
4450;SDS011;2238;50.180;9.230;2022-08-06T02:56:04;4.50;;;3.60;;
4450;SDS011;2238;50.180;9.230;2022-08-06T02:59:10;3.87;;;3.57;;
4450;SDS011;2238;50.180;9.230;2022-08-06T03:02:14;4.80;;;3.07;;
4450;SDS011;2238;50.180;9.230;2022-08-06T03:05:17;3.63;;;3.30;;
4450;SDS011;2238;50.180;9.230;2022-08-06T03:08:20;4.00;;;3.40;;
4450;SDS011;2238;50.180;9.230;2022-08-06T03:11:23;4.07;;;3.67;;
4450;SDS011;2238;50.180;9.230;2022-08-06T03:14:25;3.20;;;2.90;;
4450;SDS011;2238;50.180;9.230;2022-08-06T03:17:26;3.63;;;3.33;;
4450;SDS011;2238;50.180;9.230;2022-08-06T03:20:28;3.27;;;2.80;;
4450;SDS011;2238;50.180;9.230;2022-08-06T03:23:30;3.43;;;3.17;;
4450;SDS011;2238;50.180;9.230;2022-08-06T03:26:32;3.63;;;3.20;;
4450;SDS011;2238;50.180;9.230;2022-08-06T03:29:34;3.53;;;3.23;;
4450;SDS011;2238;50.180;9.230;2022-08-06T03:32:37;4.63;;;3.77;;
4450;SDS011;2238;50.180;9.230;2022-08-06T03:35:38;4.53;;;4.13;;
4450;SDS011;2238;50.180;9.230;2022-08-06T03:38:40;4.13;;;3.83;;
4450;SDS011;2238;50.180;9.230;2022-08-06T03:41:46;5.80;;;4.17;;
4450;SDS011;2238;50.180;9.230;2022-08-06T03:44:48;4.23;;;3.83;;
4450;SDS011;2238;50.180;9.230;2022-08-06T03:47:51;4.37;;;3.90;;
4450;SDS011;2238;50.180;9.230;2022-08-06T03:50:54;4.30;;;3.90;;
4450;SDS011;2238;50.180;9.230;2022-08-06T03:53:57;3.87;;;3.67;;
4450;SDS011;2238;50.180;9.230;2022-08-06T03:57:01;4.40;;;3.97;;
4450;SDS011;2238;50.180;9.230;2022-08-06T04:00:09;4.40;;;3.87;;
4450;SDS011;2238;50.180;9.230;2022-08-06T04:03:12;4.60;;;3.80;;
4450;SDS011;2238;50.180;9.230;2022-08-06T04:06:16;5.47;;;4.40;;
4450;SDS011;2238;50.180;9.230;2022-08-06T04:09:18;4.57;;;4.27;;
4450;SDS011;2238;50.180;9.230;2022-08-06T04:12:20;5.17;;;4.77;;
4450;SDS011;2238;50.180;9.230;2022-08-06T04:15:22;4.90;;;4.50;;
4450;SDS011;2238;50.180;9.230;2022-08-06T04:18:27;5.10;;;4.67;;
4450;SDS011;2238;50.180;9.230;2022-08-06T04:21:30;5.43;;;4.80;;
4450;SDS011;2238;50.180;9.230;2022-08-06T04:24:31;5.60;;;4.70;;
4450;SDS011;2238;50.180;9.230;2022-08-06T04:27:31;3.90;;;3.50;;
4450;SDS011;2238;50.180;9.230;2022-08-06T04:30:35;8.43;;;5.03;;
4450;SDS011;2238;50.180;9.230;2022-08-06T04:33:37;4.43;;;3.93;;
4450;SDS011;2238;50.180;9.230;2022-08-06T04:36:40;4.20;;;3.90;;
4450;SDS011;2238;50.180;9.230;2022-08-06T04:39:41;6.60;;;3.63;;
4450;SDS011;2238;50.180;9.230;2022-08-06T04:42:42;5.30;;;3.70;;
4450;SDS011;2238;50.180;9.230;2022-08-06T04:45:43;4.10;;;3.80;;
4450;SDS011;2238;50.180;9.230;2022-08-06T04:48:45;4.07;;;3.30;;
4450;SDS011;2238;50.180;9.230;2022-08-06T04:51:47;2.80;;;2.53;;
4450;SDS011;2238;50.180;9.230;2022-08-06T04:54:48;3.47;;;3.17;;
4450;SDS011;2238;50.180;9.230;2022-08-06T04:57:48;3.10;;;2.90;;
4450;SDS011;2238;50.180;9.230;2022-08-06T05:00:49;3.47;;;3.17;;
4450;SDS011;2238;50.180;9.230;2022-08-06T05:03:50;3.07;;;2.87;;
4450;SDS011;2238;50.180;9.230;2022-08-06T05:07:33;4.07;;;2.70;;
4450;SDS011;2238;50.180;9.230;2022-08-06T05:10:26;3.67;;;3.37;;
4450;SDS011;2238;50.180;9.230;2022-08-06T05:13:39;3.20;;;3.00;;
4450;SDS011;2238;50.180;9.230;2022-08-06T05:16:43;3.70;;;3.10;;
4450;SDS011;2238;50.180;9.230;2022-08-06T05:19:59;3.30;;;2.97;;
4450;SDS011;2238;50.180;9.230;2022-08-06T05:23:08;3.20;;;2.90;;
4450;SDS011;2238;50.180;9.230;2022-08-06T05:26:12;4.33;;;2.90;;
4450;SDS011;2238;50.180;9.230;2022-08-06T05:29:17;4.40;;;2.90;;
4450;SDS011;2238;50.180;9.230;2022-08-06T05:32:19;4.70;;;3.30;;
4450;SDS011;2238;50.180;9.230;2022-08-06T05:35:20;3.67;;;3.37;;
4450;SDS011;2238;50.180;9.230;2022-08-06T05:38:20;4.20;;;3.43;;
4450;SDS011;2238;50.180;9.230;2022-08-06T05:41:21;4.90;;;3.47;;
4450;SDS011;2238;50.180;9.230;2022-08-06T05:44:22;3.27;;;2.97;;
4450;SDS011;2238;50.180;9.230;2022-08-06T05:47:24;5.73;;;3.20;;
4450;SDS011;2238;50.180;9.230;2022-08-06T05:50:28;3.27;;;2.93;;
4450;SDS011;2238;50.180;9.230;2022-08-06T05:53:36;3.13;;;2.83;;
4450;SDS011;2238;50.180;9.230;2022-08-06T05:56:43;3.40;;;3.07;;
4450;SDS011;2238;50.180;9.230;2022-08-06T05:59:48;7.13;;;3.00;;
4450;SDS011;2238;50.180;9.230;2022-08-06T06:02:54;4.87;;;3.60;;
4450;SDS011;2238;50.180;9.230;2022-08-06T06:05:56;3.80;;;3.03;;
4450;SDS011;2238;50.180;9.230;2022-08-06T06:08:59;3.50;;;3.00;;
4450;SDS011;2238;50.180;9.230;2022-08-06T06:12:00;3.10;;;2.90;;
4450;SDS011;2238;50.180;9.230;2022-08-06T06:15:02;7.33;;;4.50;;
4450;SDS011;2238;50.180;9.230;2022-08-06T06:24:46;3.77;;;2.37;;
4450;SDS011;2238;50.180;9.230;2022-08-06T06:27:57;4.43;;;3.30;;
4450;SDS011;2238;50.180;9.230;2022-08-06T06:31:06;5.90;;;2.87;;
4450;SDS011;2238;50.180;9.230;2022-08-06T06:34:12;4.17;;;2.70;;
4450;SDS011;2238;50.180;9.230;2022-08-06T06:37:23;3.23;;;2.40;;
4450;SDS011;2238;50.180;9.230;2022-08-06T06:40:35;2.40;;;2.20;;
4450;SDS011;2238;50.180;9.230;2022-08-06T06:44:11;2.70;;;2.50;;
4450;SDS011;2238;50.180;9.230;2022-08-06T06:50:30;2.77;;;2.57;;
4450;SDS011;2238;50.180;9.230;2022-08-06T06:53:35;3.43;;;2.30;;
4450;SDS011;2238;50.180;9.230;2022-08-06T06:56:42;2.20;;;2.00;;
4450;SDS011;2238;50.180;9.230;2022-08-06T06:59:46;2.50;;;2.30;;
4450;SDS011;2238;50.180;9.230;2022-08-06T07:02:52;2.27;;;2.10;;
4450;SDS011;2238;50.180;9.230;2022-08-06T07:05:54;4.73;;;2.43;;
4450;SDS011;2238;50.180;9.230;2022-08-06T07:08:55;2.33;;;2.13;;
4450;SDS011;2238;50.180;9.230;2022-08-06T07:11:57;3.53;;;2.20;;
4450;SDS011;2238;50.180;9.230;2022-08-06T07:14:59;1.97;;;1.83;;
4450;SDS011;2238;50.180;9.230;2022-08-06T07:18:04;2.50;;;2.40;;
4450;SDS011;2238;50.180;9.230;2022-08-06T07:21:06;2.80;;;2.40;;
4450;SDS011;2238;50.180;9.230;2022-08-06T07:24:07;2.30;;;2.10;;
4450;SDS011;2238;50.180;9.230;2022-08-06T07:27:11;2.03;;;1.70;;
4450;SDS011;2238;50.180;9.230;2022-08-06T07:30:14;2.20;;;2.00;;
4450;SDS011;2238;50.180;9.230;2022-08-06T07:33:15;5.13;;;1.90;;
4450;SDS011;2238;50.180;9.230;2022-08-06T07:36:18;2.73;;;2.00;;
4450;SDS011;2238;50.180;9.230;2022-08-06T07:39:22;2.07;;;1.70;;
4450;SDS011;2238;50.180;9.230;2022-08-06T07:42:25;2.83;;;2.40;;
4450;SDS011;2238;50.180;9.230;2022-08-06T07:45:29;5.83;;;2.30;;
4450;SDS011;2238;50.180;9.230;2022-08-06T07:48:37;5.90;;;2.10;;
4450;SDS011;2238;50.180;9.230;2022-08-06T07:51:42;3.00;;;2.10;;
4450;SDS011;2238;50.180;9.230;2022-08-06T07:54:44;3.73;;;1.90;;
4450;SDS011;2238;50.180;9.230;2022-08-06T07:57:46;2.10;;;1.93;;
4450;SDS011;2238;50.180;9.230;2022-08-06T08:00:47;1.87;;;1.60;;
4450;SDS011;2238;50.180;9.230;2022-08-06T08:03:48;1.50;;;1.40;;
4450;SDS011;2238;50.180;9.230;2022-08-06T08:07:08;3.20;;;1.70;;
4450;SDS011;2238;50.180;9.230;2022-08-06T08:10:10;2.10;;;1.90;;
4450;SDS011;2238;50.180;9.230;2022-08-06T08:13:12;1.93;;;1.70;;
4450;SDS011;2238;50.180;9.230;2022-08-06T08:16:14;4.20;;;1.93;;
4450;SDS011;2238;50.180;9.230;2022-08-06T08:19:22;2.10;;;2.00;;
4450;SDS011;2238;50.180;9.230;2022-08-06T08:22:25;5.03;;;2.33;;
4450;SDS011;2238;50.180;9.230;2022-08-06T08:25:25;1.93;;;1.73;;
4450;SDS011;2238;50.180;9.230;2022-08-06T08:28:26;3.33;;;1.60;;
4450;SDS011;2238;50.180;9.230;2022-08-06T08:31:27;3.57;;;2.10;;
4450;SDS011;2238;50.180;9.230;2022-08-06T08:34:27;2.20;;;1.53;;
4450;SDS011;2238;50.180;9.230;2022-08-06T08:37:28;2.00;;;1.90;;
4450;SDS011;2238;50.180;9.230;2022-08-06T08:40:29;2.33;;;1.77;;
4450;SDS011;2238;50.180;9.230;2022-08-06T08:43:35;2.10;;;1.70;;
4450;SDS011;2238;50.180;9.230;2022-08-06T08:46:42;2.10;;;1.80;;
4450;SDS011;2238;50.180;9.230;2022-08-06T08:49:45;2.70;;;1.90;;
4450;SDS011;2238;50.180;9.230;2022-08-06T08:52:51;3.83;;;2.10;;
4450;SDS011;2238;50.180;9.230;2022-08-06T08:55:55;1.73;;;1.47;;
4450;SDS011;2238;50.180;9.230;2022-08-06T08:58:57;1.63;;;1.53;;
4450;SDS011;2238;50.180;9.230;2022-08-06T09:01:58;2.40;;;1.40;;
4450;SDS011;2238;50.180;9.230;2022-08-06T09:04:59;2.30;;;1.30;;
4450;SDS011;2238;50.180;9.230;2022-08-06T09:08:01;1.30;;;1.17;;
4450;SDS011;2238;50.180;9.230;2022-08-06T09:11:03;2.30;;;1.80;;
4450;SDS011;2238;50.180;9.230;2022-08-06T09:14:05;1.50;;;1.40;;
4450;SDS011;2238;50.180;9.230;2022-08-06T09:17:07;1.27;;;1.20;;
4450;SDS011;2238;50.180;9.230;2022-08-06T09:20:07;2.77;;;1.80;;
4450;SDS011;2238;50.180;9.230;2022-08-06T09:23:08;1.60;;;1.37;;
4450;SDS011;2238;50.180;9.230;2022-08-06T09:26:09;3.40;;;1.33;;
4450;SDS011;2238;50.180;9.230;2022-08-06T09:29:19;1.57;;;1.40;;
4450;SDS011;2238;50.180;9.230;2022-08-06T09:35:41;1.40;;;1.20;;
4450;SDS011;2238;50.180;9.230;2022-08-06T09:39:15;9.43;;;1.83;;
4450;SDS011;2238;50.180;9.230;2022-08-06T09:42:08;1.63;;;1.50;;
4450;SDS011;2238;50.180;9.230;2022-08-06T09:45:10;2.93;;;1.07;;
4450;SDS011;2238;50.180;9.230;2022-08-06T09:48:13;2.80;;;1.40;;
4450;SDS011;2238;50.180;9.230;2022-08-06T09:51:21;1.33;;;1.23;;
4450;SDS011;2238;50.180;9.230;2022-08-06T09:54:22;1.30;;;1.20;;
4450;SDS011;2238;50.180;9.230;2022-08-06T09:57:43;2.07;;;1.40;;
4450;SDS011;2238;50.180;9.230;2022-08-06T10:00:46;1.53;;;1.43;;
4450;SDS011;2238;50.180;9.230;2022-08-06T10:03:47;1.30;;;1.17;;
4450;SDS011;2238;50.180;9.230;2022-08-06T10:06:55;1.47;;;1.30;;
4450;SDS011;2238;50.180;9.230;2022-08-06T10:09:56;4.10;;;1.20;;
4450;SDS011;2238;50.180;9.230;2022-08-06T10:13:09;1.27;;;1.00;;
4450;SDS011;2238;50.180;9.230;2022-08-06T10:35:39;1.27;;;1.10;;
4450;SDS011;2238;50.180;9.230;2022-08-06T10:38:44;1.73;;;1.63;;
4450;SDS011;2238;50.180;9.230;2022-08-06T10:41:48;2.20;;;1.40;;
4450;SDS011;2238;50.180;9.230;2022-08-06T10:44:50;2.20;;;1.30;;
4450;SDS011;2238;50.180;9.230;2022-08-06T10:47:51;4.10;;;1.17;;
4450;SDS011;2238;50.180;9.230;2022-08-06T10:50:52;4.13;;;1.37;;
4450;SDS011;2238;50.180;9.230;2022-08-06T10:53:54;1.90;;;1.67;;
4450;SDS011;2238;50.180;9.230;2022-08-06T10:56:55;1.50;;;1.40;;
4450;SDS011;2238;50.180;9.230;2022-08-06T10:59:56;1.57;;;1.47;;
4450;SDS011;2238;50.180;9.230;2022-08-06T11:16:07;1.40;;;1.30;;
4450;SDS011;2238;50.180;9.230;2022-08-06T11:19:08;2.50;;;1.10;;
4450;SDS011;2238;50.180;9.230;2022-08-06T11:25:48;2.57;;;1.40;;
4450;SDS011;2238;50.180;9.230;2022-08-06T11:31:53;2.50;;;1.10;;
4450;SDS011;2238;50.180;9.230;2022-08-06T11:34:57;1.20;;;1.00;;
4450;SDS011;2238;50.180;9.230;2022-08-06T11:37:57;1.53;;;1.10;;
4450;SDS011;2238;50.180;9.230;2022-08-06T11:41:05;1.37;;;1.00;;
4450;SDS011;2238;50.180;9.230;2022-08-06T11:44:08;1.20;;;1.10;;
4450;SDS011;2238;50.180;9.230;2022-08-06T11:47:13;2.43;;;1.30;;
4450;SDS011;2238;50.180;9.230;2022-08-06T11:50:24;1.47;;;1.20;;
4450;SDS011;2238;50.180;9.230;2022-08-06T11:53:37;1.30;;;1.20;;
4450;SDS011;2238;50.180;9.230;2022-08-06T12:00:03;1.33;;;1.23;;
4450;SDS011;2238;50.180;9.230;2022-08-06T12:03:07;1.47;;;1.37;;
4450;SDS011;2238;50.180;9.230;2022-08-06T12:06:22;1.13;;;1.03;;
4450;SDS011;2238;50.180;9.230;2022-08-06T12:09:32;1.63;;;1.27;;
4450;SDS011;2238;50.180;9.230;2022-08-06T12:12:37;2.77;;;1.00;;
4450;SDS011;2238;50.180;9.230;2022-08-06T12:15:42;1.17;;;1.10;;
4450;SDS011;2238;50.180;9.230;2022-08-06T12:18:45;2.97;;;0.90;;
4450;SDS011;2238;50.180;9.230;2022-08-06T12:21:50;1.47;;;1.17;;
4450;SDS011;2238;50.180;9.230;2022-08-06T12:24:52;1.90;;;1.20;;
4450;SDS011;2238;50.180;9.230;2022-08-06T12:27:55;4.03;;;1.17;;
4450;SDS011;2238;50.180;9.230;2022-08-06T12:30:56;2.13;;;1.33;;
4450;SDS011;2238;50.180;9.230;2022-08-06T12:33:57;1.53;;;1.07;;
4450;SDS011;2238;50.180;9.230;2022-08-06T12:36:58;1.97;;;1.10;;
4450;SDS011;2238;50.180;9.230;2022-08-06T12:39:59;1.23;;;1.17;;
4450;SDS011;2238;50.180;9.230;2022-08-06T12:43:19;1.30;;;1.20;;
4450;SDS011;2238;50.180;9.230;2022-08-06T12:46:19;1.23;;;1.07;;
4450;SDS011;2238;50.180;9.230;2022-08-06T12:49:29;2.30;;;1.00;;
4450;SDS011;2238;50.180;9.230;2022-08-06T12:52:32;4.50;;;1.03;;
4450;SDS011;2238;50.180;9.230;2022-08-06T12:55:34;1.10;;;1.00;;
4450;SDS011;2238;50.180;9.230;2022-08-06T12:58:41;1.00;;;1.00;;
4450;SDS011;2238;50.180;9.230;2022-08-06T13:01:43;1.20;;;1.10;;
4450;SDS011;2238;50.180;9.230;2022-08-06T13:04:50;1.00;;;0.90;;
4450;SDS011;2238;50.180;9.230;2022-08-06T13:07:53;4.93;;;1.00;;
4450;SDS011;2238;50.180;9.230;2022-08-06T13:10:56;1.43;;;0.97;;
4450;SDS011;2238;50.180;9.230;2022-08-06T13:13:57;1.30;;;1.20;;
4450;SDS011;2238;50.180;9.230;2022-08-06T13:17:10;3.40;;;1.10;;
4450;SDS011;2238;50.180;9.230;2022-08-06T13:20:11;3.93;;;1.83;;
4450;SDS011;2238;50.180;9.230;2022-08-06T13:23:13;2.53;;;1.20;;
4450;SDS011;2238;50.180;9.230;2022-08-06T13:29:20;1.20;;;1.10;;
4450;SDS011;2238;50.180;9.230;2022-08-06T13:32:25;1.93;;;1.00;;
4450;SDS011;2238;50.180;9.230;2022-08-06T13:35:26;0.83;;;0.83;;
4450;SDS011;2238;50.180;9.230;2022-08-06T13:38:31;0.80;;;0.80;;
4450;SDS011;2238;50.180;9.230;2022-08-06T13:41:33;3.30;;;1.10;;
4450;SDS011;2238;50.180;9.230;2022-08-06T13:44:35;4.67;;;0.90;;
4450;SDS011;2238;50.180;9.230;2022-08-06T13:47:41;0.97;;;0.87;;
4450;SDS011;2238;50.180;9.230;2022-08-06T13:50:42;9.20;;;1.83;;
4450;SDS011;2238;50.180;9.230;2022-08-06T13:53:44;1.07;;;1.00;;
4450;SDS011;2238;50.180;9.230;2022-08-06T13:56:46;1.33;;;0.97;;
4450;SDS011;2238;50.180;9.230;2022-08-06T13:59:47;2.00;;;1.10;;
4450;SDS011;2238;50.180;9.230;2022-08-06T14:02:47;1.40;;;1.30;;
4450;SDS011;2238;50.180;9.230;2022-08-06T14:05:48;1.20;;;1.10;;
4450;SDS011;2238;50.180;9.230;2022-08-06T14:08:49;1.80;;;1.17;;
4450;SDS011;2238;50.180;9.230;2022-08-06T14:11:54;1.60;;;0.90;;
4450;SDS011;2238;50.180;9.230;2022-08-06T14:14:56;1.17;;;1.07;;
4450;SDS011;2238;50.180;9.230;2022-08-06T14:17:57;1.47;;;1.10;;
4450;SDS011;2238;50.180;9.230;2022-08-06T14:20:58;0.90;;;0.90;;
4450;SDS011;2238;50.180;9.230;2022-08-06T14:23:59;2.83;;;0.83;;
4450;SDS011;2238;50.180;9.230;2022-08-06T14:27:00;1.00;;;1.00;;
4450;SDS011;2238;50.180;9.230;2022-08-06T14:30:01;0.93;;;0.73;;
4450;SDS011;2238;50.180;9.230;2022-08-06T14:33:03;1.23;;;1.10;;
4450;SDS011;2238;50.180;9.230;2022-08-06T14:36:08;0.80;;;0.80;;
4450;SDS011;2238;50.180;9.230;2022-08-06T14:39:08;1.40;;;0.80;;
4450;SDS011;2238;50.180;9.230;2022-08-06T14:42:12;3.30;;;1.23;;
4450;SDS011;2238;50.180;9.230;2022-08-06T14:45:31;2.50;;;1.10;;
4450;SDS011;2238;50.180;9.230;2022-08-06T14:48:32;1.90;;;1.03;;
4450;SDS011;2238;50.180;9.230;2022-08-06T14:51:32;1.63;;;0.90;;
4450;SDS011;2238;50.180;9.230;2022-08-06T14:54:33;1.03;;;0.93;;
4450;SDS011;2238;50.180;9.230;2022-08-06T14:57:35;1.97;;;0.80;;
4450;SDS011;2238;50.180;9.230;2022-08-06T15:00:37;2.40;;;1.00;;
4450;SDS011;2238;50.180;9.230;2022-08-06T15:03:37;1.03;;;0.80;;
4450;SDS011;2238;50.180;9.230;2022-08-06T15:06:38;0.80;;;0.80;;
4450;SDS011;2238;50.180;9.230;2022-08-06T15:09:38;1.10;;;1.00;;
4450;SDS011;2238;50.180;9.230;2022-08-06T15:12:39;1.37;;;1.10;;
4450;SDS011;2238;50.180;9.230;2022-08-06T15:15:40;0.73;;;0.73;;
4450;SDS011;2238;50.180;9.230;2022-08-06T15:18:40;1.00;;;1.00;;
4450;SDS011;2238;50.180;9.230;2022-08-06T15:21:44;1.07;;;0.97;;
4450;SDS011;2238;50.180;9.230;2022-08-06T15:24:45;1.20;;;0.83;;
4450;SDS011;2238;50.180;9.230;2022-08-06T15:27:45;1.30;;;1.00;;
4450;SDS011;2238;50.180;9.230;2022-08-06T15:30:46;1.37;;;0.77;;
4450;SDS011;2238;50.180;9.230;2022-08-06T15:33:47;0.90;;;0.90;;
4450;SDS011;2238;50.180;9.230;2022-08-06T15:36:47;0.90;;;0.70;;
4450;SDS011;2238;50.180;9.230;2022-08-06T15:39:48;3.07;;;0.90;;
4450;SDS011;2238;50.180;9.230;2022-08-06T15:42:49;1.30;;;1.20;;
4450;SDS011;2238;50.180;9.230;2022-08-06T15:45:50;1.83;;;0.97;;
4450;SDS011;2238;50.180;9.230;2022-08-06T15:48:52;1.70;;;0.80;;
4450;SDS011;2238;50.180;9.230;2022-08-06T15:51:52;0.70;;;0.70;;
4450;SDS011;2238;50.180;9.230;2022-08-06T15:54:53;1.10;;;0.93;;
4450;SDS011;2238;50.180;9.230;2022-08-06T15:57:54;0.90;;;0.80;;
4450;SDS011;2238;50.180;9.230;2022-08-06T16:00:54;1.20;;;1.10;;
4450;SDS011;2238;50.180;9.230;2022-08-06T16:03:55;0.70;;;0.70;;
4450;SDS011;2238;50.180;9.230;2022-08-06T16:06:56;1.33;;;0.80;;
4450;SDS011;2238;50.180;9.230;2022-08-06T16:09:56;3.57;;;0.90;;
4450;SDS011;2238;50.180;9.230;2022-08-06T16:12:57;2.20;;;1.10;;
4450;SDS011;2238;50.180;9.230;2022-08-06T16:15:58;0.80;;;0.80;;
4450;SDS011;2238;50.180;9.230;2022-08-06T16:18:59;0.73;;;0.73;;
4450;SDS011;2238;50.180;9.230;2022-08-06T16:21:59;1.30;;;1.07;;
4450;SDS011;2238;50.180;9.230;2022-08-06T16:25:00;1.03;;;1.00;;
4450;SDS011;2238;50.180;9.230;2022-08-06T16:28:01;2.27;;;2.07;;
4450;SDS011;2238;50.180;9.230;2022-08-06T16:31:02;3.27;;;2.97;;
4450;SDS011;2238;50.180;9.230;2022-08-06T16:34:02;0.90;;;0.90;;
4450;SDS011;2238;50.180;9.230;2022-08-06T16:37:03;1.40;;;1.30;;
4450;SDS011;2238;50.180;9.230;2022-08-06T16:40:04;1.77;;;0.83;;
4450;SDS011;2238;50.180;9.230;2022-08-06T16:43:05;2.97;;;0.97;;
4450;SDS011;2238;50.180;9.230;2022-08-06T16:46:06;1.80;;;1.00;;
4450;SDS011;2238;50.180;9.230;2022-08-06T16:49:07;2.17;;;0.87;;
4450;SDS011;2238;50.180;9.230;2022-08-06T16:52:07;1.20;;;1.00;;
4450;SDS011;2238;50.180;9.230;2022-08-06T16:55:08;0.80;;;0.80;;
4450;SDS011;2238;50.180;9.230;2022-08-06T16:58:09;1.07;;;1.00;;
4450;SDS011;2238;50.180;9.230;2022-08-06T17:01:09;1.00;;;0.93;;
4450;SDS011;2238;50.180;9.230;2022-08-06T17:04:10;1.43;;;1.00;;
4450;SDS011;2238;50.180;9.230;2022-08-06T17:07:11;1.23;;;1.13;;
4450;SDS011;2238;50.180;9.230;2022-08-06T17:10:12;1.43;;;0.70;;
4450;SDS011;2238;50.180;9.230;2022-08-06T17:13:15;1.27;;;0.80;;
4450;SDS011;2238;50.180;9.230;2022-08-06T17:16:15;1.70;;;1.37;;
4450;SDS011;2238;50.180;9.230;2022-08-06T17:19:16;1.20;;;1.10;;
4450;SDS011;2238;50.180;9.230;2022-08-06T17:22:17;0.90;;;0.80;;
4450;SDS011;2238;50.180;9.230;2022-08-06T17:25:18;2.20;;;0.80;;
4450;SDS011;2238;50.180;9.230;2022-08-06T17:28:18;1.03;;;0.70;;
4450;SDS011;2238;50.180;9.230;2022-08-06T17:31:19;1.10;;;0.80;;
4450;SDS011;2238;50.180;9.230;2022-08-06T17:34:20;0.77;;;0.70;;
4450;SDS011;2238;50.180;9.230;2022-08-06T17:37:21;3.30;;;0.90;;
4450;SDS011;2238;50.180;9.230;2022-08-06T17:40:22;1.90;;;1.03;;
4450;SDS011;2238;50.180;9.230;2022-08-06T17:43:24;1.10;;;1.10;;
4450;SDS011;2238;50.180;9.230;2022-08-06T17:46:25;1.47;;;1.37;;
4450;SDS011;2238;50.180;9.230;2022-08-06T17:49:26;1.20;;;1.00;;
4450;SDS011;2238;50.180;9.230;2022-08-06T17:52:26;1.43;;;1.03;;
4450;SDS011;2238;50.180;9.230;2022-08-06T17:55:27;1.23;;;1.03;;
4450;SDS011;2238;50.180;9.230;2022-08-06T17:58:28;1.57;;;0.70;;
4450;SDS011;2238;50.180;9.230;2022-08-06T18:01:30;2.77;;;2.57;;
4450;SDS011;2238;50.180;9.230;2022-08-06T18:04:31;0.90;;;0.87;;
4450;SDS011;2238;50.180;9.230;2022-08-06T18:07:31;0.93;;;0.93;;
4450;SDS011;2238;50.180;9.230;2022-08-06T18:10:32;1.33;;;0.97;;
4450;SDS011;2238;50.180;9.230;2022-08-06T18:13:33;1.00;;;0.87;;
4450;SDS011;2238;50.180;9.230;2022-08-06T18:16:34;1.57;;;0.90;;
4450;SDS011;2238;50.180;9.230;2022-08-06T18:19:34;1.07;;;0.97;;
4450;SDS011;2238;50.180;9.230;2022-08-06T18:22:35;1.57;;;0.83;;
4450;SDS011;2238;50.180;9.230;2022-08-06T18:25:35;2.80;;;0.80;;
4450;SDS011;2238;50.180;9.230;2022-08-06T18:28:39;1.20;;;0.90;;
4450;SDS011;2238;50.180;9.230;2022-08-06T18:31:39;1.10;;;1.00;;
4450;SDS011;2238;50.180;9.230;2022-08-06T18:34:40;1.00;;;0.97;;
4450;SDS011;2238;50.180;9.230;2022-08-06T18:37:41;0.93;;;0.93;;
4450;SDS011;2238;50.180;9.230;2022-08-06T18:40:43;2.70;;;0.80;;
4450;SDS011;2238;50.180;9.230;2022-08-06T18:43:44;1.20;;;0.90;;
4450;SDS011;2238;50.180;9.230;2022-08-06T18:46:45;0.80;;;0.80;;
4450;SDS011;2238;50.180;9.230;2022-08-06T18:49:47;0.80;;;0.80;;
4450;SDS011;2238;50.180;9.230;2022-08-06T18:52:48;1.57;;;0.97;;
4450;SDS011;2238;50.180;9.230;2022-08-06T18:55:48;1.40;;;1.30;;
4450;SDS011;2238;50.180;9.230;2022-08-06T18:58:49;1.13;;;1.10;;
4450;SDS011;2238;50.180;9.230;2022-08-06T19:01:50;1.47;;;0.97;;
4450;SDS011;2238;50.180;9.230;2022-08-06T19:04:50;0.93;;;0.93;;
4450;SDS011;2238;50.180;9.230;2022-08-06T19:07:53;1.20;;;1.07;;
4450;SDS011;2238;50.180;9.230;2022-08-06T19:10:53;0.77;;;0.77;;
4450;SDS011;2238;50.180;9.230;2022-08-06T19:13:57;4.10;;;1.00;;
4450;SDS011;2238;50.180;9.230;2022-08-06T19:16:57;1.47;;;0.90;;
4450;SDS011;2238;50.180;9.230;2022-08-06T19:19:58;1.47;;;0.80;;
4450;SDS011;2238;50.180;9.230;2022-08-06T19:22:59;2.07;;;0.80;;
4450;SDS011;2238;50.180;9.230;2022-08-06T19:25:59;1.30;;;1.10;;
4450;SDS011;2238;50.180;9.230;2022-08-06T19:29:00;3.70;;;1.10;;
4450;SDS011;2238;50.180;9.230;2022-08-06T19:32:01;5.90;;;1.10;;
4450;SDS011;2238;50.180;9.230;2022-08-06T19:35:01;1.43;;;0.90;;
4450;SDS011;2238;50.180;9.230;2022-08-06T19:38:02;0.90;;;0.80;;
4450;SDS011;2238;50.180;9.230;2022-08-06T19:41:03;1.00;;;0.90;;
4450;SDS011;2238;50.180;9.230;2022-08-06T19:44:04;0.70;;;0.70;;
4450;SDS011;2238;50.180;9.230;2022-08-06T19:47:05;0.77;;;0.77;;
4450;SDS011;2238;50.180;9.230;2022-08-06T19:50:07;0.80;;;0.70;;
4450;SDS011;2238;50.180;9.230;2022-08-06T19:53:08;0.97;;;0.90;;
4450;SDS011;2238;50.180;9.230;2022-08-06T19:56:09;4.53;;;1.20;;
4450;SDS011;2238;50.180;9.230;2022-08-06T19:59:10;0.80;;;0.80;;
4450;SDS011;2238;50.180;9.230;2022-08-06T20:02:11;3.20;;;0.93;;
4450;SDS011;2238;50.180;9.230;2022-08-06T20:05:12;1.03;;;0.93;;